createdAt,value
2019-02-26T00:01:23.411Z,6.59
2019-02-26T00:04:29.772Z,6.40
2019-02-26T00:07:35.124Z,6.49
2019-02-26T00:10:40.382Z,6.36
2019-02-26T00:13:45.629Z,6.30
2019-02-26T00:16:51.055Z,6.39
2019-02-26T00:19:56.373Z,6.39
2019-02-26T00:23:02.030Z,6.49
2019-02-26T00:26:10.453Z,6.50
2019-02-26T00:29:15.740Z,6.50
2019-02-26T00:32:21.026Z,6.40
2019-02-26T00:35:27.632Z,6.46
2019-02-26T00:38:35.319Z,6.44
2019-02-26T00:41:40.490Z,6.44
2019-02-26T00:44:46.057Z,6.52
2019-02-26T00:47:51.306Z,6.42
2019-02-26T00:50:57.301Z,6.37
2019-02-26T00:54:04.127Z,6.48
2019-02-26T00:57:11.591Z,6.38
2019-02-26T01:00:16.749Z,6.31
2019-02-26T01:03:23.641Z,6.27
2019-02-26T01:06:31.050Z,6.14
2019-02-26T01:09:36.220Z,6.09
2019-02-26T01:12:42.601Z,6.04
2019-02-26T01:15:48.027Z,5.94
2019-02-26T01:18:53.427Z,5.95
2019-02-26T01:21:58.809Z,5.95
2019-02-26T01:25:04.136Z,5.98
2019-02-26T01:28:09.435Z,5.98
2019-02-26T01:31:14.726Z,6.42
2019-02-26T01:34:20.448Z,6.27
2019-02-26T01:37:27.841Z,6.34
2019-02-26T01:40:33.661Z,6.21
2019-02-26T01:43:38.851Z,6.21
2019-02-26T01:46:44.130Z,6.63
2019-02-26T01:49:51.093Z,6.90
2019-02-26T01:52:58.491Z,6.67
2019-02-26T01:56:05.104Z,6.93
2019-02-26T01:59:10.501Z,6.95
2019-02-26T02:02:18.108Z,6.67
2019-02-26T02:05:23.777Z,6.55
2019-02-26T02:08:29.684Z,6.64
2019-02-26T02:11:35.886Z,6.93
2019-02-26T02:14:41.894Z,7.00
2019-02-26T02:17:47.161Z,7.24
2019-02-26T02:20:52.458Z,7.19
2019-02-26T02:23:57.676Z,7.26
2019-02-26T02:27:02.931Z,7.27
2019-02-26T02:30:14.448Z,7.30
2019-02-26T02:33:23.589Z,6.87
2019-02-26T02:36:26.459Z,6.93
2019-02-26T02:39:32.060Z,6.96
2019-02-26T02:42:38.370Z,6.67
2019-02-26T02:45:44.489Z,6.52
2019-02-26T02:48:49.831Z,6.34
2019-02-26T02:51:55.159Z,6.37
2019-02-26T02:55:00.445Z,6.33
2019-02-26T02:58:05.794Z,6.30
2019-02-26T03:01:13.697Z,6.16
2019-02-26T03:04:24.744Z,6.24
2019-02-26T03:07:27.468Z,6.24
2019-02-26T03:10:34.590Z,5.94
2019-02-26T03:13:40.412Z,5.80
2019-02-26T03:16:47.957Z,5.67
2019-02-26T03:19:55.843Z,5.55
2019-02-26T03:22:59.943Z,5.74
2019-02-26T03:26:05.233Z,5.74
2019-02-26T03:29:10.551Z,5.72
2019-02-26T03:32:15.916Z,5.85
2019-02-26T03:35:23.388Z,5.95
2019-02-26T03:38:28.909Z,5.92
2019-02-26T03:41:34.284Z,6.07
2019-02-26T03:44:39.699Z,6.08
2019-02-26T03:47:44.971Z,5.99
2019-02-26T03:50:51.351Z,5.87
2019-02-26T03:53:56.694Z,5.71
2019-02-26T03:57:02.220Z,5.82
2019-02-26T04:00:08.753Z,5.75
2019-02-26T04:03:17.287Z,5.55
2019-02-26T04:06:22.030Z,5.94
2019-02-26T04:09:27.345Z,5.91
2019-02-26T04:12:36.080Z,5.90
2019-02-26T04:15:39.574Z,5.34
2019-02-26T04:18:45.020Z,5.17
2019-02-26T04:22:26.506Z,5.09
2019-02-26T04:25:40.643Z,4.96
2019-02-26T04:29:09.335Z,4.91
2019-02-26T04:32:50.646Z,4.83
2019-02-26T04:36:44.737Z,4.88
2019-02-26T04:40:14.121Z,4.90
2019-02-26T04:43:45.696Z,4.84
2019-02-26T04:47:05.916Z,4.94
2019-02-26T04:50:10.304Z,4.88
2019-02-26T04:53:15.710Z,4.87
2019-02-26T04:56:21.071Z,4.92
2019-02-26T04:59:26.470Z,4.98
2019-02-26T05:02:34.433Z,5.25
2019-02-26T05:05:39.766Z,5.07
2019-02-26T05:08:45.104Z,5.11
2019-02-26T05:11:50.478Z,5.20
2019-02-26T05:14:55.839Z,5.67
2019-02-26T05:18:01.150Z,5.64
2019-02-26T05:21:08.314Z,5.64
2019-02-26T05:24:17.438Z,5.62
2019-02-26T05:27:22.708Z,5.56
2019-02-26T05:30:27.305Z,5.61
2019-02-26T05:33:32.871Z,5.76
2019-02-26T05:36:40.308Z,5.83
2019-02-26T05:39:46.855Z,5.62
2019-02-26T05:42:53.423Z,5.59
2019-02-26T05:46:00.702Z,5.57
2019-02-26T05:49:09.758Z,5.66
2019-02-26T05:52:13.464Z,5.72
2019-02-26T05:55:20.591Z,5.68
2019-02-26T05:58:25.723Z,5.85
2019-02-26T06:01:31.033Z,5.89
2019-02-26T06:04:38.418Z,5.57
2019-02-26T06:07:43.412Z,5.38
2019-02-26T06:10:48.817Z,5.34
2019-02-26T06:13:56.306Z,5.17
2019-02-26T06:17:02.659Z,5.15
2019-02-26T06:20:14.421Z,5.26
2019-02-26T06:23:19.715Z,5.23
2019-02-26T06:26:28.161Z,5.27
2019-02-26T06:29:32.647Z,5.30
2019-02-26T06:32:40.155Z,5.39
2019-02-26T06:35:46.066Z,5.46
2019-02-26T06:38:52.137Z,5.51
2019-02-26T06:41:58.387Z,5.65
2019-02-26T06:45:06.497Z,5.65
2019-02-26T06:48:14.640Z,5.70
2019-02-26T06:51:21.286Z,5.74
2019-02-26T06:54:26.677Z,5.93
2019-02-26T06:57:33.314Z,6.51
2019-02-26T07:00:38.594Z,6.59
2019-02-26T07:03:43.859Z,6.52
2019-02-26T07:06:49.086Z,6.72
2019-02-26T07:09:57.532Z,6.90
2019-02-26T07:13:02.226Z,7.14
2019-02-26T07:16:08.450Z,7.28
2019-02-26T07:19:16.538Z,7.38
2019-02-26T07:22:22.229Z,7.59
2019-02-26T07:25:27.587Z,7.76
2019-02-26T07:28:32.941Z,7.89
2019-02-26T07:31:38.330Z,8.04
2019-02-26T07:34:45.203Z,8.17
2019-02-26T07:37:52.361Z,8.31
2019-02-26T07:40:59.593Z,8.46
2019-02-26T07:44:08.692Z,8.56
2019-02-26T07:47:11.562Z,8.65
2019-02-26T07:50:17.444Z,8.73
2019-02-26T07:53:24.927Z,8.86
2019-02-26T07:56:32.612Z,8.91
2019-02-26T07:59:39.859Z,8.87
2019-02-26T08:02:44.175Z,8.58
2019-02-26T08:05:50.953Z,8.37
2019-02-26T08:08:56.353Z,8.18
2019-02-26T08:12:02.437Z,8.24
2019-02-26T08:15:12.614Z,8.39
2019-02-26T08:18:17.559Z,8.46
2019-02-26T08:21:24.726Z,8.39
2019-02-26T08:24:29.809Z,8.24
2019-02-26T08:27:37.909Z,8.37
2019-02-26T08:30:45.210Z,8.58
2019-02-26T08:33:51.871Z,8.75
2019-02-26T08:36:57.288Z,8.92
2019-02-26T08:40:02.498Z,8.96
2019-02-26T08:43:09.451Z,9.07
2019-02-26T08:46:17.135Z,9.06
2019-02-26T08:49:22.817Z,9.01
2019-02-26T08:52:29.390Z,9.12
2019-02-26T08:55:34.877Z,9.19
2019-02-26T08:58:41.141Z,9.18
2019-02-26T09:01:47.089Z,8.68
2019-02-26T09:04:53.529Z,8.77
2019-02-26T09:07:58.799Z,8.76
2019-02-26T09:11:06.308Z,8.89
2019-02-26T09:14:12.128Z,9.14
2019-02-26T09:17:20.877Z,9.55
2019-02-26T09:20:25.058Z,9.99
2019-02-26T09:23:31.014Z,9.86
2019-02-26T09:26:37.269Z,9.77
2019-02-26T09:29:49.603Z,9.68
2019-02-26T09:32:52.596Z,9.67
2019-02-26T09:35:58.091Z,9.54
2019-02-26T09:39:05.783Z,9.67
2019-02-26T09:42:11.533Z,9.69
2019-02-26T09:45:20.382Z,9.79
2019-02-26T09:48:24.853Z,9.85
2019-02-26T09:51:30.627Z,9.94
2019-02-26T09:54:40.269Z,10.04
2019-02-26T09:57:46.478Z,10.07
2019-02-26T10:00:53.933Z,10.20
2019-02-26T10:04:00.837Z,10.20
2019-02-26T10:07:08.874Z,10.16
2019-02-26T10:10:14.491Z,10.23
2019-02-26T10:13:21.091Z,10.28
2019-02-26T10:16:28.283Z,10.34
2019-02-26T10:19:35.558Z,10.45
2019-02-26T10:22:40.614Z,10.56
2019-02-26T10:25:47.514Z,10.56
2019-02-26T10:28:58.118Z,10.74
2019-02-26T10:31:59.947Z,10.63
2019-02-26T10:35:06.494Z,10.64
2019-02-26T10:38:12.330Z,10.55
2019-02-26T10:41:17.623Z,10.64
2019-02-26T10:44:22.848Z,10.63
2019-02-26T10:47:29.906Z,10.74
2019-02-26T10:50:37.290Z,10.75
2019-02-26T10:53:43.193Z,10.80
2019-02-26T10:56:48.539Z,10.96
2019-02-26T10:59:56.970Z,10.90
2019-02-26T11:03:00.914Z,11.04
2019-02-26T11:06:09.912Z,11.09
2019-02-26T11:09:18.326Z,11.07
2019-02-26T11:12:22.739Z,11.14
2019-02-26T11:15:31.199Z,11.24
2019-02-26T11:18:37.398Z,11.25
2019-02-26T11:21:42.580Z,11.19
2019-02-26T11:24:48.528Z,11.49
2019-02-26T11:27:54.847Z,11.59
2019-02-26T11:31:00.203Z,11.48
2019-02-26T11:34:09.210Z,11.59
2019-02-26T11:37:14.843Z,11.58
2019-02-26T11:40:22.164Z,11.60
2019-02-26T11:43:28.911Z,11.75
2019-02-26T11:46:34.435Z,11.82
2019-02-26T11:49:41.667Z,11.88
2019-02-26T11:52:46.837Z,11.97
2019-02-26T11:55:54.496Z,12.06
2019-02-26T11:58:59.033Z,12.07
2019-02-26T12:02:06.259Z,12.15
2019-02-26T12:05:11.342Z,12.16
2019-02-26T12:08:19.374Z,12.03
2019-02-26T12:11:23.613Z,12.08
2019-02-26T12:14:28.823Z,12.08
2019-02-26T12:17:35.689Z,12.20
2019-02-26T12:20:43.037Z,12.26
2019-02-26T12:23:47.913Z,12.30
2019-02-26T12:26:54.729Z,12.51
2019-02-26T12:30:00.186Z,12.31
2019-02-26T12:33:07.709Z,12.46
2019-02-26T12:36:13.611Z,12.31
2019-02-26T12:39:21.392Z,12.27
2019-02-26T12:42:25.958Z,12.17
2019-02-26T12:45:34.209Z,12.20
2019-02-26T12:48:44.216Z,12.21
2019-02-26T12:51:47.603Z,12.48
2019-02-26T12:54:54.941Z,12.31
2019-02-26T12:58:00.363Z,12.20
2019-02-26T13:01:05.681Z,12.36
2019-02-26T13:04:12.979Z,12.51
2019-02-26T13:07:18.003Z,12.35
2019-02-26T13:10:23.929Z,12.35
2019-02-26T13:13:29.216Z,12.19
2019-02-26T13:16:35.584Z,12.34
2019-02-26T13:19:40.814Z,12.43
2019-02-26T13:22:47.723Z,12.46
2019-02-26T13:25:53.048Z,12.40
2019-02-26T13:29:00.344Z,12.43
2019-02-26T13:32:08.019Z,12.37
2019-02-26T13:35:13.809Z,12.30
2019-02-26T13:38:24.215Z,12.25
2019-02-26T13:41:29.895Z,12.36
2019-02-26T13:44:33.227Z,12.07
2019-02-26T13:47:38.637Z,12.08
2019-02-26T13:50:43.908Z,12.03
2019-02-26T13:53:50.741Z,12.05
2019-02-26T13:56:56.049Z,12.00
2019-02-26T14:00:01.369Z,11.96
2019-02-26T14:03:08.162Z,11.81
2019-02-26T14:06:13.489Z,11.77
2019-02-26T14:09:18.822Z,11.78
2019-02-26T14:12:24.291Z,11.72
2019-02-26T14:15:29.990Z,11.71
2019-02-26T14:18:35.304Z,11.78
2019-02-26T14:21:40.547Z,11.87
2019-02-26T14:24:45.786Z,11.81
2019-02-26T14:27:51.085Z,11.81
2019-02-26T14:30:56.357Z,11.72
2019-02-26T14:34:01.613Z,11.78
2019-02-26T14:37:06.895Z,11.84
2019-02-26T14:40:13.080Z,11.81
2019-02-26T14:43:18.451Z,11.69
2019-02-26T14:46:23.748Z,11.47
2019-02-26T14:49:29.102Z,11.47
2019-02-26T14:52:34.343Z,11.56
2019-02-26T14:55:41.637Z,11.52
2019-02-26T14:58:46.663Z,11.53
2019-02-26T15:01:52.184Z,11.52
2019-02-26T15:04:57.523Z,11.43
2019-02-26T15:08:02.814Z,11.36
2019-02-26T15:11:08.219Z,11.40
2019-02-26T15:14:13.553Z,11.39
2019-02-26T15:17:18.897Z,11.22
2019-02-26T15:20:24.235Z,11.13
2019-02-26T15:23:29.552Z,11.09
2019-02-26T15:26:34.813Z,11.03
2019-02-26T15:29:40.112Z,11.00
2019-02-26T15:32:45.644Z,10.92
2019-02-26T15:35:50.962Z,10.93
2019-02-26T15:38:56.192Z,10.82
2019-02-26T15:42:01.534Z,10.84
2019-02-26T15:45:09.485Z,10.73
2019-02-26T15:48:14.743Z,10.66
2019-02-26T15:51:20.772Z,10.51
2019-02-26T15:54:27.304Z,10.36
2019-02-26T15:57:32.589Z,10.31
2019-02-26T16:00:38.531Z,10.23
2019-02-26T16:03:43.898Z,10.19
2019-02-26T16:06:49.232Z,10.13
2019-02-26T16:09:54.531Z,10.11
2019-02-26T16:13:04.577Z,10.05
2019-02-26T16:16:09.927Z,9.96
2019-02-26T16:19:15.208Z,9.96
2019-02-26T16:22:20.508Z,9.97
2019-02-26T16:25:26.817Z,9.86
2019-02-26T16:28:32.107Z,9.75
2019-02-26T16:31:37.374Z,9.70
2019-02-26T16:34:42.723Z,9.62
2019-02-26T16:37:48.013Z,9.63
2019-02-26T16:40:53.652Z,9.56
2019-02-26T16:44:00.501Z,9.34
2019-02-26T16:47:06.441Z,9.31
2019-02-26T16:50:13.831Z,9.17
2019-02-26T16:53:20.238Z,9.16
2019-02-26T16:56:25.539Z,9.02
2019-02-26T16:59:30.913Z,9.19
2019-02-26T17:02:36.188Z,8.97
2019-02-26T17:05:41.483Z,8.86
2019-02-26T17:08:47.325Z,8.88
2019-02-26T17:11:53.281Z,8.75
2019-02-26T17:14:58.662Z,8.75
2019-02-26T17:18:04.877Z,8.78
2019-02-26T17:21:10.226Z,8.66
2019-02-26T17:24:15.518Z,8.57
2019-02-26T17:27:20.914Z,8.68
2019-02-26T17:30:26.288Z,8.65
2019-02-26T17:33:33.076Z,8.53
2019-02-26T17:36:38.373Z,8.50
2019-02-26T17:39:43.662Z,8.56
2019-02-26T17:42:51.250Z,8.65
2019-02-26T17:45:56.048Z,8.70
2019-02-26T17:49:02.863Z,8.73
2019-02-26T17:52:08.355Z,8.58
2019-02-26T17:55:13.707Z,8.61
2019-02-26T17:58:19.158Z,8.45
2019-02-26T18:01:24.559Z,8.42
2019-02-26T18:04:29.897Z,8.36
2019-02-26T18:07:38.389Z,8.45
2019-02-26T18:10:42.294Z,8.27
2019-02-26T18:13:47.673Z,8.21
2019-02-26T18:16:52.961Z,8.55
2019-02-26T18:19:58.253Z,8.38
2019-02-26T18:23:04.766Z,8.15
2019-02-26T18:26:12.807Z,8.12
2019-02-26T18:29:18.178Z,7.99
2019-02-26T18:32:23.455Z,7.98
2019-02-26T18:35:28.735Z,8.00
2019-02-26T18:38:34.118Z,7.94
2019-02-26T18:41:39.517Z,7.81
2019-02-26T18:44:44.944Z,7.72
2019-02-26T18:47:50.359Z,7.77
2019-02-26T18:50:55.638Z,7.84
2019-02-26T18:54:00.891Z,7.97
2019-02-26T18:57:06.154Z,7.94
2019-02-26T19:00:13.932Z,7.94
2019-02-26T19:03:20.790Z,8.02
2019-02-26T19:06:26.988Z,7.88
2019-02-26T19:09:33.845Z,7.77
2019-02-26T19:12:40.689Z,7.76
2019-02-26T19:15:47.919Z,7.78
2019-02-26T19:18:52.930Z,7.78
2019-02-26T19:21:58.991Z,7.82
2019-02-26T19:25:06.777Z,7.70
2019-02-26T19:28:11.707Z,7.78
2019-02-26T19:31:17.058Z,7.69
2019-02-26T19:34:22.292Z,7.78
2019-02-26T19:37:27.597Z,7.74
2019-02-26T19:40:38.796Z,7.82
2019-02-26T19:43:42.471Z,7.52
2019-02-26T19:46:49.658Z,7.60
2019-02-26T19:49:55.899Z,7.73
2019-02-26T19:53:02.469Z,7.87
2019-02-26T19:56:08.225Z,7.72
2019-02-26T19:59:14.253Z,7.57
2019-02-26T20:02:20.787Z,7.57
2019-02-26T20:05:26.077Z,7.60
2019-02-26T20:08:31.412Z,7.58
2019-02-26T20:11:36.754Z,7.55
2019-02-26T20:14:42.056Z,7.57
2019-02-26T20:17:49.123Z,7.61
2019-02-26T20:20:54.523Z,7.49
2019-02-26T20:23:59.868Z,7.50
2019-02-26T20:27:05.266Z,7.45
2019-02-26T20:30:12.532Z,7.46
2019-02-26T20:33:19.452Z,7.43
2019-02-26T20:36:24.703Z,7.30
2019-02-26T20:39:30.113Z,7.26
2019-02-26T20:42:35.376Z,7.28
2019-02-26T20:45:40.720Z,7.41
2019-02-26T20:48:46.150Z,7.44
2019-02-26T20:51:51.732Z,7.42
2019-02-26T20:54:57.103Z,7.46
2019-02-26T20:58:02.427Z,7.44
2019-02-26T21:01:07.760Z,7.43
2019-02-26T21:04:13.062Z,7.28
2019-02-26T21:07:21.797Z,7.28
2019-02-26T21:10:26.441Z,7.25
2019-02-26T21:13:34.595Z,7.18
2019-02-26T21:16:38.812Z,7.02
2019-02-26T21:19:44.233Z,7.18
2019-02-26T21:22:54.607Z,7.18
2019-02-26T21:25:57.538Z,7.08
2019-02-26T21:29:05.555Z,6.88
2019-02-26T21:32:09.810Z,6.66
2019-02-26T21:35:15.100Z,6.72
2019-02-26T21:38:20.356Z,6.83
2019-02-26T21:41:25.627Z,6.83
2019-02-26T21:44:30.925Z,6.86
2019-02-26T21:47:36.196Z,6.74
2019-02-26T21:50:41.477Z,6.81
2019-02-26T21:53:49.192Z,6.87
2019-02-26T21:56:53.784Z,6.97
2019-02-26T21:59:59.125Z,6.98
2019-02-26T22:03:04.460Z,7.01
2019-02-26T22:06:11.496Z,6.95
2019-02-26T22:09:16.987Z,6.96
2019-02-26T22:12:24.743Z,7.04
2019-02-26T22:15:30.102Z,7.11
2019-02-26T22:18:35.386Z,7.08
2019-02-26T22:21:51.837Z,7.15
2019-02-26T22:24:55.509Z,6.94
2019-02-26T22:28:01.811Z,6.85
2019-02-26T22:31:07.051Z,6.79
2019-02-26T22:34:16.765Z,6.74
2019-02-26T22:37:21.502Z,6.80
2019-02-26T22:40:29.221Z,6.86
2019-02-26T22:43:33.776Z,6.86
2019-02-26T22:46:39.181Z,6.98
2019-02-26T22:49:45.444Z,6.95
2019-02-26T22:52:50.750Z,6.86
2019-02-26T22:55:56.014Z,6.80
2019-02-26T22:59:01.375Z,6.84
2019-02-26T23:02:09.893Z,6.82
2019-02-26T23:05:16.306Z,6.68
2019-02-26T23:08:21.702Z,6.56
2019-02-26T23:11:31.688Z,6.37
2019-02-26T23:14:35.912Z,6.46
2019-02-26T23:17:42.839Z,6.43
2019-02-26T23:20:48.232Z,6.64
2019-02-26T23:23:54.814Z,6.37
2019-02-26T23:27:01.088Z,6.46
2019-02-26T23:30:08.506Z,6.46
2019-02-26T23:33:15.772Z,6.27
2019-02-26T23:36:21.155Z,6.41
2019-02-26T23:39:28.010Z,6.44
2019-02-26T23:42:38.788Z,6.42
2019-02-26T23:45:41.635Z,6.81
2019-02-26T23:48:49.991Z,6.90
2019-02-26T23:51:55.297Z,6.30
2019-02-26T23:55:00.531Z,6.56
2019-02-26T23:58:05.821Z,6.17
